Time;durP1;ratioP1;P1;durP2;ratioP2;P2;SDS_P1;SDS_P2;PMS_P1;PMS_P2;Temp;Humidity;BMP_temperature;BMP_pressure;BME280_temperature;BME280_humidity;BME280_pressure;Samples;Min_cycle;Max_cycle;Signal;HPM_P1;HPM_P2
2021/05/10 00:01:36;;;;;;;4.50;1.23;;;20.50;99.30;;;;;;5033323;28;20205;-78
2021/05/10 00:04:02;;;;;;;2.23;1.20;;;20.40;99.60;;;;;;5017310;28;20189;-78
2021/05/10 00:06:27;;;;;;;2.60;1.10;;;20.30;99.90;;;;;;5017516;28;20633;-78
2021/05/10 00:08:56;;;;;;;5.00;1.00;;;20.20;99.90;;;;;;5034146;28;20186;-78
2021/05/10 00:11:21;;;;;;;4.77;1.20;;;20.20;99.90;;;;;;5034056;28;20209;-78
2021/05/10 00:13:49;;;;;;;2.57;1.10;;;20.20;99.90;;;;;;5017545;28;20178;-78
2021/05/10 00:16:15;;;;;;;1.93;1.20;;;20.00;99.90;;;;;;5034135;28;20190;-78
2021/05/10 00:18:40;;;;;;;2.03;0.90;;;19.90;99.90;;;;;;5033905;28;20177;-78
2021/05/10 00:21:06;;;;;;;4.13;1.30;;;20.00;99.90;;;;;;5033696;28;20179;-78
2021/05/10 00:23:31;;;;;;;1.73;1.00;;;20.00;99.90;;;;;;5050393;28;20178;-78
2021/05/10 00:25:57;;;;;;;2.90;1.13;;;19.90;99.90;;;;;;5017391;28;20202;-78
2021/05/10 00:28:22;;;;;;;3.73;1.20;;;19.90;99.90;;;;;;5017423;28;20174;-78
2021/05/10 00:30:48;;;;;;;2.80;1.20;;;19.80;99.90;;;;;;5017102;28;20233;-78
2021/05/10 00:33:14;;;;;;;2.37;1.00;;;19.70;99.90;;;;;;5017197;28;20269;-78
2021/05/10 00:35:39;;;;;;;4.93;1.20;;;19.60;99.90;;;;;;5033633;28;20190;-78
2021/05/10 00:38:05;;;;;;;5.07;1.17;;;19.60;99.90;;;;;;5017278;28;20174;-78
2021/05/10 00:40:31;;;;;;;3.10;0.90;;;19.50;99.90;;;;;;5017165;28;20194;-78
2021/05/10 00:42:57;;;;;;;3.77;1.00;;;19.40;99.90;;;;;;5033625;28;20634;-79
2021/05/10 00:45:23;;;;;;;2.30;1.20;;;19.30;99.90;;;;;;5033612;28;20205;-78
2021/05/10 00:47:48;;;;;;;1.77;0.93;;;19.40;99.90;;;;;;5033442;28;20181;-78
2021/05/10 00:50:14;;;;;;;1.50;0.90;;;19.50;99.90;;;;;;5017100;28;20210;-78
2021/05/10 00:52:40;;;;;;;3.37;1.17;;;19.50;99.90;;;;;;5033451;28;20186;-78
2021/05/10 00:55:06;;;;;;;2.80;1.00;;;19.50;99.90;;;;;;5033495;28;20574;-78
2021/05/10 00:57:33;;;;;;;5.37;1.23;;;19.40;99.90;;;;;;5033492;28;20182;-78
2021/05/10 00:59:59;;;;;;;2.53;1.10;;;19.30;99.90;;;;;;5017004;28;20296;-78
2021/05/10 01:02:25;;;;;;;2.67;1.20;;;19.20;99.90;;;;;;5016816;28;20276;-78
2021/05/10 01:04:50;;;;;;;5.23;1.20;;;19.10;99.90;;;;;;5033337;28;20313;-78
2021/05/10 01:07:16;;;;;;;3.60;1.00;;;19.00;99.90;;;;;;5017168;28;20613;-78
2021/05/10 01:09:41;;;;;;;2.97;1.20;;;18.90;99.90;;;;;;5017006;28;20210;-78
2021/05/10 01:12:07;;;;;;;2.03;1.20;;;19.00;99.90;;;;;;5033917;28;20183;-79
2021/05/10 01:14:34;;;;;;;2.07;1.17;;;19.00;99.90;;;;;;5020471;28;20190;-78
2021/05/10 01:16:59;;;;;;;4.03;1.20;;;18.90;99.90;;;;;;5037180;28;20257;-78
2021/05/10 01:19:25;;;;;;;2.83;1.00;;;18.80;99.90;;;;;;5020417;28;20618;-79
2021/05/10 01:21:51;;;;;;;1.83;1.00;;;18.80;99.90;;;;;;5020355;28;20277;-78
2021/05/10 01:24:16;;;;;;;1.53;0.90;;;18.70;99.90;;;;;;5036906;28;20265;-78
2021/05/10 01:26:42;;;;;;;2.83;1.13;;;18.70;99.90;;;;;;5036999;28;20225;-79
2021/05/10 01:29:07;;;;;;;3.13;1.13;;;18.80;99.90;;;;;;5020398;28;20606;-78
2021/05/10 01:31:33;;;;;;;3.57;1.30;;;18.80;99.90;;;;;;5036885;28;20228;-79
2021/05/10 01:33:59;;;;;;;3.57;1.40;;;18.80;99.90;;;;;;5020465;28;20178;-78
2021/05/10 01:36:24;;;;;;;1.83;1.10;;;18.90;99.90;;;;;;5036954;28;20227;-79
2021/05/10 01:38:50;;;;;;;3.67;1.27;;;18.90;99.90;;;;;;5037039;28;20269;-78
2021/05/10 01:41:15;;;;;;;3.23;1.10;;;19.00;99.90;;;;;;5036670;28;20174;-78
2021/05/10 01:43:41;;;;;;;5.90;1.50;;;19.10;99.90;;;;;;5053064;28;20178;-79
2021/05/10 01:46:06;;;;;;;3.73;1.30;;;19.20;99.90;;;;;;5019966;28;20271;-78
2021/05/10 01:48:32;;;;;;;2.50;1.20;;;19.20;99.90;;;;;;5020134;28;20182;-79
2021/05/10 01:50:58;;;;;;;3.60;1.20;;;19.20;99.90;;;;;;5019743;28;20225;-79
2021/05/10 01:53:23;;;;;;;1.90;1.10;;;19.20;99.90;;;;;;5020183;28;20178;-79
2021/05/10 01:55:49;;;;;;;4.30;1.40;;;19.20;99.90;;;;;;5020025;28;20547;-78
2021/05/10 01:58:14;;;;;;;4.43;1.40;;;19.20;99.90;;;;;;5052969;28;20197;-78
2021/05/10 02:00:42;;;;;;;4.27;1.43;;;19.20;99.90;;;;;;5020296;28;20190;-78
2021/05/10 02:03:14;;;;;;;3.43;1.40;;;19.30;99.90;;;;;;5036262;28;20593;-78
2021/05/10 02:05:40;;;;;;;2.80;1.20;;;19.30;99.90;;;;;;5052760;28;20210;-78
2021/05/10 02:08:07;;;;;;;1.80;1.10;;;19.20;99.90;;;;;;5019989;28;20595;-78
2021/05/10 02:10:34;;;;;;;2.97;1.30;;;19.20;99.90;;;;;;5019747;28;20722;-78
2021/05/10 02:13:03;;;;;;;2.43;1.30;;;19.20;99.90;;;;;;5035891;28;20197;-79
2021/05/10 02:15:30;;;;;;;2.80;1.13;;;19.30;99.90;;;;;;5052624;28;20202;-78
2021/05/10 02:17:56;;;;;;;2.73;1.40;;;19.30;99.90;;;;;;5036197;28;20181;-78
2021/05/10 02:20:22;;;;;;;1.90;1.10;;;19.30;99.90;;;;;;5052535;28;20178;-78
2021/05/10 02:22:58;;;;;;;5.03;1.30;;;19.20;99.90;;;;;;5019174;28;20205;-78
2021/05/10 02:25:29;;;;;;;2.13;1.13;;;19.20;99.90;;;;;;5035960;28;20669;-78
2021/05/10 02:27:55;;;;;;;2.47;1.30;;;19.20;99.90;;;;;;5019513;28;20209;-78
2021/05/10 02:30:23;;;;;;;1.57;1.13;;;19.30;99.90;;;;;;5019037;28;20248;-78
2021/05/10 02:32:48;;;;;;;4.77;1.40;;;19.30;99.90;;;;;;5035615;28;20725;-78
2021/05/10 02:35:14;;;;;;;4.73;1.30;;;19.20;99.90;;;;;;5019003;28;20233;-79
2021/05/10 02:37:40;;;;;;;5.60;1.33;;;19.30;99.90;;;;;;5052451;28;20223;-78
2021/05/10 02:40:07;;;;;;;4.00;1.20;;;19.30;99.90;;;;;;5035649;28;20174;-78
2021/05/10 02:42:33;;;;;;;3.33;1.27;;;19.30;99.90;;;;;;5051844;28;20178;-78
2021/05/10 02:44:58;;;;;;;3.57;1.40;;;19.30;99.90;;;;;;5035335;28;20206;-79
2021/05/10 02:47:25;;;;;;;3.77;1.40;;;19.40;99.90;;;;;;5035115;28;20309;-78
2021/05/10 02:49:52;;;;;;;2.93;1.20;;;19.40;99.90;;;;;;5035486;28;20213;-79
2021/05/10 02:52:17;;;;;;;3.60;1.30;;;19.30;99.90;;;;;;5035241;28;20564;-78
2021/05/10 02:54:43;;;;;;;3.07;1.40;;;19.20;99.90;;;;;;5035106;28;20193;-78
2021/05/10 02:57:08;;;;;;;3.73;1.27;;;19.20;99.90;;;;;;5051224;28;20174;-78
2021/05/10 02:59:34;;;;;;;2.47;1.20;;;19.20;99.90;;;;;;5051777;28;20173;-78
2021/05/10 03:01:59;;;;;;;3.53;1.20;;;19.30;99.90;;;;;;5018319;28;20183;-78
2021/05/10 03:04:25;;;;;;;2.67;1.47;;;19.40;99.90;;;;;;5051633;28;20734;-78
2021/05/10 03:06:50;;;;;;;5.43;1.20;;;19.50;99.90;;;;;;5035030;28;20641;-78
2021/05/10 03:09:16;;;;;;;2.83;1.27;;;19.50;99.90;;;;;;5051416;28;20246;-78
2021/05/10 03:11:42;;;;;;;4.17;1.10;;;19.50;99.90;;;;;;5034858;28;20590;-79
2021/05/10 03:14:08;;;;;;;2.77;1.20;;;19.60;99.90;;;;;;5018497;28;20181;-79
2021/05/10 03:16:34;;;;;;;3.60;1.23;;;19.60;99.90;;;;;;5034764;28;20170;-78
2021/05/10 03:18:59;;;;;;;2.90;1.50;;;19.50;99.90;;;;;;5034893;28;20249;-79
2021/05/10 03:21:27;;;;;;;3.50;1.20;;;19.50;99.90;;;;;;5034375;28;20179;-78
2021/05/10 03:23:53;;;;;;;3.27;1.33;;;19.50;99.90;;;;;;5018104;28;20189;-79
2021/05/10 03:26:18;;;;;;;2.37;1.33;;;19.60;99.90;;;;;;5018216;28;20198;-78
2021/05/10 03:28:44;;;;;;;7.10;1.27;;;19.50;99.90;;;;;;5034715;28;20551;-78
2021/05/10 03:31:09;;;;;;;2.70;1.40;;;19.40;99.90;;;;;;5001261;28;20221;-78
2021/05/10 03:33:35;;;;;;;3.33;1.30;;;19.50;99.90;;;;;;4998616;28;20175;-79
2021/05/10 03:36:01;;;;;;;1.57;1.03;;;19.40;99.90;;;;;;5030081;28;20578;-78
2021/05/10 03:38:26;;;;;;;2.03;1.30;;;19.40;99.90;;;;;;4998409;28;20592;-78
2021/05/10 03:40:52;;;;;;;2.80;1.53;;;19.50;99.90;;;;;;5031336;28;20181;-79
2021/05/10 03:43:17;;;;;;;3.20;1.30;;;19.50;99.90;;;;;;5014968;28;20175;-79
2021/05/10 03:45:43;;;;;;;4.97;1.30;;;19.50;99.90;;;;;;4998802;28;20213;-78
2021/05/10 03:48:09;;;;;;;2.63;1.17;;;19.50;99.90;;;;;;4998838;28;20177;-78
2021/05/10 03:50:34;;;;;;;1.93;1.17;;;19.40;99.90;;;;;;4998330;28;20207;-78
2021/05/10 03:53:00;;;;;;;2.30;1.07;;;19.40;99.90;;;;;;5014827;28;20232;-78
2021/05/10 03:55:26;;;;;;;2.63;1.13;;;19.40;99.90;;;;;;4998608;28;20202;-78
2021/05/10 03:57:52;;;;;;;5.70;1.23;;;19.30;99.90;;;;;;4998170;28;20307;-78
2021/05/10 04:00:18;;;;;;;4.07;1.17;;;19.30;99.90;;;;;;4998310;28;20186;-78
2021/05/10 04:02:44;;;;;;;6.23;1.67;;;19.30;99.90;;;;;;5014127;28;20276;-76
2021/05/10 04:13:38;;;;;;;3.33;1.20;;;19.20;99.90;;;;;;5050523;28;20174;-74
2021/05/10 04:15:37;;;;;;;4.47;1.37;;;19.30;99.90;;;;;;5023626;28;20241;-76
2021/05/10 04:18:02;;;;;;;3.23;1.50;;;19.30;99.90;;;;;;5034130;28;20201;-75
2021/05/10 04:20:28;;;;;;;2.90;1.20;;;19.20;99.90;;;;;;5017857;28;20181;-75
2021/05/10 04:22:53;;;;;;;4.07;1.40;;;19.20;99.90;;;;;;5050689;28;20178;-77
2021/05/10 04:25:19;;;;;;;4.97;1.30;;;19.20;99.90;;;;;;5034970;28;20193;-78
2021/05/10 04:27:46;;;;;;;1.87;1.40;;;19.30;99.90;;;;;;5018532;28;20267;-76
2021/05/10 04:30:12;;;;;;;3.83;1.40;;;19.30;99.90;;;;;;5050698;28;20194;-77
2021/05/10 04:32:38;;;;;;;3.20;1.27;;;19.30;99.90;;;;;;5035072;28;20264;-78
2021/05/10 04:35:04;;;;;;;3.33;1.47;;;19.40;99.90;;;;;;5053336;28;20218;-79
2021/05/10 04:37:29;;;;;;;3.37;1.27;;;19.30;99.90;;;;;;5053225;28;20178;-78
2021/05/10 04:39:55;;;;;;;1.60;1.27;;;19.30;99.90;;;;;;5020071;28;20186;-77
2021/05/10 04:42:20;;;;;;;2.10;1.27;;;19.30;99.90;;;;;;5035678;28;20175;-75
2021/05/10 04:44:46;;;;;;;3.53;1.30;;;19.30;99.90;;;;;;5017526;28;20292;-76
2021/05/10 04:47:11;;;;;;;4.77;1.50;;;19.30;99.90;;;;;;5018346;28;20206;-76
2021/05/10 04:49:37;;;;;;;5.10;1.20;;;19.20;99.90;;;;;;5038190;28;20205;-77
2021/05/10 04:52:02;;;;;;;2.30;1.27;;;19.30;99.90;;;;;;5027782;28;20186;-75
2021/05/10 04:54:28;;;;;;;2.33;1.20;;;19.40;99.90;;;;;;5035948;28;20650;-77
2021/05/10 04:56:53;;;;;;;3.90;1.23;;;19.50;99.90;;;;;;5045857;28;20210;-77
2021/05/10 04:59:20;;;;;;;2.90;1.30;;;19.50;99.90;;;;;;5024812;28;20557;-75
2021/05/10 05:01:46;;;;;;;2.90;1.20;;;19.60;99.90;;;;;;5020494;28;20526;-77
2021/05/10 05:04:11;;;;;;;3.53;1.57;;;19.60;99.90;;;;;;5045121;28;20186;-77
2021/05/10 05:06:37;;;;;;;2.70;1.40;;;19.70;99.90;;;;;;5045315;28;20221;-75
2021/05/10 05:09:02;;;;;;;4.70;1.60;;;19.70;99.90;;;;;;5028703;28;20695;-75
2021/05/10 05:11:28;;;;;;;3.30;1.23;;;19.70;99.90;;;;;;5042801;28;20213;-75
2021/05/10 05:13:54;;;;;;;3.17;1.30;;;19.70;99.90;;;;;;5014598;28;20272;-75
2021/05/10 05:16:19;;;;;;;2.77;1.40;;;19.70;99.90;;;;;;5036858;28;20191;-75
2021/05/10 05:18:45;;;;;;;2.00;1.20;;;19.70;99.90;;;;;;5037077;28;20186;-75
2021/05/10 05:21:10;;;;;;;4.37;1.23;;;19.70;99.90;;;;;;5001863;28;20194;-75
2021/05/10 05:23:36;;;;;;;3.63;1.10;;;19.70;99.90;;;;;;5033877;28;20202;-75
2021/05/10 05:26:03;;;;;;;2.60;1.17;;;19.70;99.90;;;;;;5016922;28;20213;-75
2021/05/10 05:28:29;;;;;;;2.43;1.20;;;19.70;99.90;;;;;;5017106;28;20265;-75
2021/05/10 05:30:55;;;;;;;2.83;1.33;;;19.60;99.90;;;;;;5000923;28;20293;-75
2021/05/10 05:33:21;;;;;;;1.73;1.13;;;19.60;99.90;;;;;;5026763;28;20603;-76
2021/05/10 05:35:46;;;;;;;3.17;1.23;;;19.60;99.90;;;;;;5022670;28;20202;-75
2021/05/10 05:38:12;;;;;;;1.63;1.20;;;19.70;99.90;;;;;;5037361;28;20533;-80
2021/05/10 05:40:38;;;;;;;2.20;1.20;;;19.90;99.90;;;;;;5002814;28;20167;-80
2021/05/10 05:43:04;;;;;;;3.63;1.20;;;20.00;99.90;;;;;;5002782;28;20228;-79
2021/05/10 05:45:30;;;;;;;2.50;1.03;;;20.10;99.90;;;;;;5005294;28;20199;-80
2021/05/10 05:47:56;;;;;;;2.03;0.97;;;20.20;99.90;;;;;;5035573;28;20466;-80
2021/05/10 05:50:21;;;;;;;2.13;1.20;;;20.30;99.90;;;;;;5035983;28;20199;-80
2021/05/10 05:52:47;;;;;;;2.50;1.30;;;20.30;99.90;;;;;;5035809;28;20195;-80
2021/05/10 05:55:13;;;;;;;3.30;1.30;;;20.50;99.90;;;;;;5031045;28;20659;-79
2021/05/10 05:57:38;;;;;;;6.70;1.40;;;20.70;99.90;;;;;;5020003;28;20186;-80
2021/05/10 06:00:06;;;;;;;6.37;1.13;;;20.80;99.90;;;;;;5017099;28;20660;-80
2021/05/10 06:02:31;;;;;;;5.13;1.30;;;20.90;99.90;;;;;;5039494;28;20718;-81
2021/05/10 06:04:57;;;;;;;2.97;1.10;;;20.90;99.90;;;;;;5021945;28;20301;-82
2021/05/10 06:07:22;;;;;;;4.63;1.20;;;21.00;99.90;;;;;;5022404;28;20174;-80
2021/05/10 06:09:49;;;;;;;4.13;1.37;;;21.10;99.90;;;;;;5055401;28;20202;-78
2021/05/10 06:12:14;;;;;;;1.50;1.00;;;21.10;99.90;;;;;;5036423;28;20320;-77
2021/05/10 06:14:40;;;;;;;4.43;1.30;;;21.20;99.90;;;;;;5053496;28;20190;-78
2021/05/10 06:17:05;;;;;;;3.10;1.20;;;21.50;99.90;;;;;;5018193;28;20240;-77
2021/05/10 06:19:32;;;;;;;2.17;1.20;;;21.80;99.90;;;;;;5010457;28;20190;-78
2021/05/10 06:21:57;;;;;;;4.00;1.30;;;22.10;99.90;;;;;;5030606;28;20236;-78
2021/05/10 06:24:23;;;;;;;6.60;1.30;;;22.00;99.90;;;;;;5032832;28;20615;-77
2021/05/10 06:26:49;;;;;;;4.43;1.20;;;21.90;99.90;;;;;;5032759;28;20553;-76
2021/05/10 06:29:14;;;;;;;1.93;0.97;;;21.80;99.90;;;;;;5031715;28;20205;-76
2021/05/10 06:31:40;;;;;;;6.90;1.70;;;21.60;99.90;;;;;;4999947;28;20258;-76
2021/05/10 06:34:05;;;;;;;4.07;1.20;;;21.50;99.90;;;;;;5016518;28;20561;-76
2021/05/10 06:36:32;;;;;;;2.70;1.10;;;21.40;99.90;;;;;;5016788;28;20661;-75
2021/05/10 06:38:57;;;;;;;3.07;1.50;;;21.30;99.90;;;;;;5033055;28;20190;-75
2021/05/10 06:41:23;;;;;;;2.20;1.10;;;21.30;99.90;;;;;;5015936;28;20178;-75
2021/05/10 06:43:48;;;;;;;3.93;1.23;;;21.20;99.90;;;;;;5032389;28;20245;-75
2021/05/10 06:46:14;;;;;;;3.90;1.40;;;21.30;99.90;;;;;;5016165;28;20209;-76
2021/05/10 06:48:39;;;;;;;2.87;0.90;;;21.30;99.90;;;;;;5032774;28;20260;-76
2021/05/10 06:51:05;;;;;;;3.30;1.00;;;21.20;99.90;;;;;;5015910;28;20257;-75
2021/05/10 06:53:30;;;;;;;2.30;1.13;;;21.20;99.90;;;;;;4999743;28;20198;-76
2021/05/10 06:55:56;;;;;;;4.37;1.00;;;21.20;99.90;;;;;;5017752;28;20198;-76
2021/05/10 06:58:22;;;;;;;5.37;1.17;;;21.10;99.90;;;;;;5015545;28;20178;-74
2021/05/10 07:00:52;;;;;;;2.60;1.20;;;21.20;99.90;;;;;;5015934;28;20170;-75
2021/05/10 07:03:17;;;;;;;3.63;1.40;;;21.10;99.90;;;;;;5003299;28;20179;-78
2021/05/10 07:05:46;;;;;;;4.27;0.87;;;21.00;99.90;;;;;;5016465;28;20211;-79
2021/05/10 07:08:13;;;;;;;4.10;1.33;;;20.90;99.90;;;;;;5001689;28;20179;-77
2021/05/10 07:10:39;;;;;;;2.83;1.37;;;20.90;99.90;;;;;;5031531;28;20195;-77
2021/05/10 07:13:05;;;;;;;4.87;1.33;;;20.80;99.90;;;;;;5015161;28;20175;-77
2021/05/10 07:15:31;;;;;;;3.07;1.00;;;20.80;99.90;;;;;;5003286;28;20201;-76
2021/05/10 07:18:08;;;;;;;2.93;1.10;;;20.70;99.90;;;;;;5019784;28;20253;-76
2021/05/10 07:20:34;;;;;;;1.90;1.03;;;20.80;99.90;;;;;;5003307;28;20262;-76
2021/05/10 07:23:00;;;;;;;3.73;1.03;;;20.80;99.90;;;;;;5019172;28;20190;-76
2021/05/10 07:25:26;;;;;;;2.77;1.37;;;20.90;99.90;;;;;;5003318;28;20212;-76
2021/05/10 07:27:52;;;;;;;2.67;1.13;;;21.10;99.90;;;;;;5035086;28;20175;-76
2021/05/10 07:30:18;;;;;;;3.07;1.20;;;21.10;99.90;;;;;;5001161;28;20202;-75
2021/05/10 07:32:44;;;;;;;4.30;0.93;;;21.20;99.90;;;;;;5016938;28;20175;-75
2021/05/10 07:35:10;;;;;;;2.30;1.20;;;21.30;99.90;;;;;;5001379;28;20206;-76
2021/05/10 07:37:36;;;;;;;4.10;1.30;;;21.30;99.90;;;;;;5001939;28;20194;-76
2021/05/10 07:40:03;;;;;;;3.83;1.13;;;21.80;99.90;;;;;;5018224;28;20186;-75
2021/05/10 07:42:29;;;;;;;2.40;1.20;;;23.00;99.90;;;;;;5034503;28;20695;-76
2021/05/10 07:44:54;;;;;;;2.93;1.23;;;23.80;99.90;;;;;;5050961;28;20206;-76
2021/05/10 07:47:20;;;;;;;3.07;0.90;;;24.10;99.90;;;;;;5033424;28;20266;-76
2021/05/10 07:49:45;;;;;;;1.97;1.13;;;24.00;99.90;;;;;;5032954;28;20665;-76
2021/05/10 07:52:11;;;;;;;4.67;1.40;;;23.40;99.90;;;;;;5032973;28;20306;-75
2021/05/10 07:54:37;;;;;;;1.67;1.27;;;23.20;99.90;;;;;;5031921;28;20202;-75
2021/05/10 07:57:02;;;;;;;1.77;0.90;;;23.00;99.90;;;;;;5049027;28;20179;-76
2021/05/10 07:59:28;;;;;;;2.33;1.03;;;23.50;99.90;;;;;;5032433;28;20175;-76
2021/05/10 08:01:56;;;;;;;4.97;1.17;;;23.80;99.90;;;;;;5049413;28;20229;-75
2021/05/10 08:04:21;;;;;;;2.97;1.00;;;24.00;99.90;;;;;;5033327;28;20604;-76
2021/05/10 08:06:47;;;;;;;3.00;0.93;;;24.20;99.90;;;;;;5033624;28;20217;-75
2021/05/10 08:09:12;;;;;;;2.73;0.90;;;24.20;99.90;;;;;;5033193;28;20174;-76
2021/05/10 08:11:39;;;;;;;2.33;1.10;;;24.10;99.90;;;;;;5032434;28;20263;-76
2021/05/10 08:14:05;;;;;;;2.30;0.93;;;24.00;99.90;;;;;;5033625;28;20170;-76
2021/05/10 08:16:31;;;;;;;2.87;1.20;;;24.20;99.90;;;;;;5033267;28;20217;-75
2021/05/10 08:18:56;;;;;;;1.47;0.80;;;24.40;99.90;;;;;;5033226;28;20171;-76
2021/05/10 08:21:22;;;;;;;2.17;0.80;;;24.60;99.90;;;;;;5016164;28;20183;-76
2021/05/10 08:23:47;;;;;;;1.20;0.77;;;24.20;99.90;;;;;;5019652;28;20181;-76
2021/05/10 08:26:13;;;;;;;1.10;0.90;;;23.90;99.90;;;;;;5021246;28;20201;-75
2021/05/10 08:28:38;;;;;;;3.13;0.97;;;23.80;99.90;;;;;;5039740;28;20185;-75
2021/05/10 08:31:04;;;;;;;4.40;1.10;;;23.70;99.90;;;;;;5004426;28;20206;-75
2021/05/10 08:33:32;;;;;;;1.60;1.00;;;23.50;99.90;;;;;;5036181;28;20537;-77
2021/05/10 08:35:58;;;;;;;5.37;1.10;;;23.50;99.90;;;;;;5003296;28;20623;-80
2021/05/10 08:38:23;;;;;;;1.93;0.90;;;23.70;99.90;;;;;;5018794;28;20186;-77
2021/05/10 08:40:51;;;;;;;3.27;0.90;;;23.70;99.90;;;;;;5018865;28;20648;-75
2021/05/10 08:43:21;;;;;;;2.33;0.90;;;23.60;99.90;;;;;;5041017;28;20174;-77
2021/05/10 08:45:52;;;;;;;2.00;0.90;;;23.60;99.90;;;;;;5016789;28;20227;-78
2021/05/10 08:48:18;;;;;;;2.57;0.90;;;23.70;99.90;;;;;;5020074;28;20177;-79
2021/05/10 08:50:44;;;;;;;4.33;1.10;;;23.80;99.90;;;;;;5036644;28;20202;-79
2021/05/10 08:53:12;;;;;;;2.60;1.00;;;23.90;99.90;;;;;;5025156;28;20304;-78
2021/05/10 08:55:38;;;;;;;2.67;0.83;;;23.60;99.90;;;;;;5037958;28;20254;-78
2021/05/10 08:58:04;;;;;;;2.63;0.70;;;23.60;99.90;;;;;;5047233;28;20174;-79
2021/05/10 09:00:29;;;;;;;3.90;1.10;;;23.50;99.90;;;;;;5034030;28;20247;-78
2021/05/10 09:03:10;;;;;;;1.97;1.00;;;23.60;99.90;;;;;;5031256;28;20638;-78
2021/05/10 09:05:46;;;;;;;3.83;1.13;;;23.40;99.90;;;;;;5039224;28;20224;-80
2021/05/10 09:08:12;;;;;;;2.30;1.00;;;23.50;99.90;;;;;;5037850;28;20558;-78
2021/05/10 09:10:38;;;;;;;3.23;0.97;;;23.60;99.90;;;;;;5005489;28;20202;-78
2021/05/10 09:13:03;;;;;;;3.70;0.90;;;24.10;99.90;;;;;;5022273;28;20166;-78
2021/05/10 09:15:33;;;;;;;4.07;0.90;;;24.40;99.90;;;;;;5021974;28;20191;-79
2021/05/10 09:18:09;;;;;;;2.03;0.77;;;24.80;99.90;;;;;;5005264;28;20185;-75
2021/05/10 09:20:39;;;;;;;2.50;1.20;;;24.60;99.90;;;;;;5001345;28;20210;-77
2021/05/10 09:23:09;;;;;;;1.63;0.80;;;24.60;99.90;;;;;;5018835;28;20174;-77
2021/05/10 09:25:38;;;;;;;1.93;0.83;;;24.50;99.90;;;;;;5018079;28;20198;-77
2021/05/10 09:28:17;;;;;;;2.43;0.90;;;24.20;99.90;;;;;;5039652;28;20182;-78
2021/05/10 09:30:43;;;;;;;1.57;0.83;;;23.50;99.90;;;;;;5053877;28;20736;-78
2021/05/10 09:33:23;;;;;;;3.50;1.07;;;23.20;99.90;;;;;;5053925;28;20181;-78
2021/05/10 09:35:55;;;;;;;2.83;0.87;;;22.80;99.90;;;;;;5056625;28;20190;-81
2021/05/10 09:38:25;;;;;;;4.33;1.07;;;22.20;99.90;;;;;;5024157;28;20232;-81
2021/05/10 09:40:55;;;;;;;2.33;0.90;;;21.80;99.90;;;;;;5041223;28;20224;-80
2021/05/10 09:43:25;;;;;;;1.40;0.90;;;21.80;99.90;;;;;;5033511;28;20184;-81
2021/05/10 09:45:52;;;;;;;3.43;1.03;;;21.70;99.90;;;;;;5003273;28;20194;-81
2021/05/10 09:48:19;;;;;;;4.10;0.80;;;21.70;99.90;;;;;;5004216;28;20674;-81
2021/05/10 09:50:47;;;;;;;3.03;1.03;;;21.60;99.90;;;;;;5020140;28;20218;-83
2021/05/10 09:53:16;;;;;;;3.47;0.90;;;21.50;99.90;;;;;;5034805;28;20602;-77
2021/05/10 09:55:53;;;;;;;2.50;0.77;;;21.40;99.90;;;;;;5005013;28;20272;-80
2021/05/10 09:58:20;;;;;;;3.00;0.73;;;21.40;99.90;;;;;;5024495;28;20185;-81
2021/05/10 10:00:46;;;;;;;1.80;0.80;;;21.40;99.90;;;;;;5023355;28;20170;-81
2021/05/10 10:03:34;;;;;;;1.00;0.57;;;21.30;99.90;;;;;;5006257;28;20290;-81
2021/05/10 10:06:01;;;;;;;3.47;0.50;;;21.20;99.90;;;;;;5003110;28;20218;-78
2021/05/10 10:08:27;;;;;;;7.20;0.70;;;21.20;99.90;;;;;;5010234;28;20202;-76
2021/05/10 10:10:53;;;;;;;1.20;0.70;;;21.00;99.90;;;;;;5032809;28;20198;-76
2021/05/10 10:13:18;;;;;;;2.87;0.60;;;20.80;99.90;;;;;;5032601;28;20208;-76
2021/05/10 10:15:46;;;;;;;2.63;0.77;;;20.70;99.90;;;;;;5049658;28;20198;-79
2021/05/10 10:18:12;;;;;;;3.57;0.70;;;20.60;99.90;;;;;;5038278;28;20672;-79
2021/05/10 10:20:38;;;;;;;1.10;0.80;;;20.60;99.90;;;;;;5020506;28;20261;-78
2021/05/10 10:23:07;;;;;;;1.33;0.50;;;20.60;99.90;;;;;;5035791;28;20224;-78
2021/05/10 10:25:34;;;;;;;1.17;0.50;;;20.70;99.90;;;;;;5019352;28;20206;-78
2021/05/10 10:28:00;;;;;;;1.47;0.50;;;20.80;99.90;;;;;;5019176;28;20190;-77
2021/05/10 10:30:26;;;;;;;1.40;0.60;;;20.80;99.90;;;;;;5035629;28;20217;-78
2021/05/10 10:32:51;;;;;;;4.30;0.60;;;21.00;99.90;;;;;;5051935;28;20240;-78
2021/05/10 10:35:17;;;;;;;1.37;0.60;;;21.10;99.90;;;;;;5019811;28;20198;-79
2021/05/10 10:37:42;;;;;;;2.33;0.53;;;21.30;99.90;;;;;;5022006;28;20194;-77
2021/05/10 10:40:21;;;;;;;1.30;0.60;;;21.30;99.90;;;;;;5025389;28;20179;-78
2021/05/10 10:42:47;;;;;;;1.57;0.50;;;21.30;99.90;;;;;;5022296;28;20612;-78
2021/05/10 10:45:21;;;;;;;3.43;0.60;;;21.20;99.90;;;;;;5020416;28;20320;-78
2021/05/10 10:47:52;;;;;;;2.87;0.63;;;21.20;99.90;;;;;;5022109;28;20195;-79
2021/05/10 10:50:20;;;;;;;1.17;0.50;;;21.20;99.90;;;;;;5021983;28;20664;-78
2021/05/10 10:52:53;;;;;;;3.43;0.73;;;21.00;99.90;;;;;;5020124;28;20188;-78
2021/05/10 10:55:30;;;;;;;2.50;0.67;;;20.90;99.90;;;;;;5037564;28;20224;-78
2021/05/10 10:58:18;;;;;;;0.93;0.50;;;21.00;99.90;;;;;;5037805;28;20649;-78
2021/05/10 11:00:56;;;;;;;1.33;0.60;;;21.00;99.90;;;;;;5051933;28;20657;-78
2021/05/10 11:03:28;;;;;;;1.40;0.50;;;21.10;99.90;;;;;;5052413;28;20228;-78
2021/05/10 11:05:53;;;;;;;1.60;0.60;;;21.10;99.90;;;;;;5021548;28;20329;-78
2021/05/10 11:08:52;;;;;;;2.37;0.50;;;21.20;99.90;;;;;;5020394;28;20213;-78
2021/05/10 11:11:27;;;;;;;0.73;0.57;;;21.50;99.90;;;;;;5038251;28;20202;-78
2021/05/10 11:13:53;;;;;;;2.73;0.70;;;21.50;99.90;;;;;;5042611;28;20279;-80
2021/05/10 11:16:20;;;;;;;1.27;0.50;;;21.70;99.90;;;;;;5019005;28;20239;-80
2021/05/10 11:18:53;;;;;;;1.90;0.60;;;21.70;99.90;;;;;;5005892;28;20221;-80
2021/05/10 11:21:22;;;;;;;2.07;0.67;;;21.80;99.90;;;;;;5037746;28;20175;-80
2021/05/10 11:23:57;;;;;;;1.00;0.53;;;21.80;99.90;;;;;;5033989;28;20210;-80
2021/05/10 11:26:52;;;;;;;2.20;0.50;;;21.90;99.90;;;;;;5040059;28;20696;-80
2021/05/10 11:29:27;;;;;;;1.77;0.60;;;21.80;99.90;;;;;;5019201;28;20181;-79
2021/05/10 11:31:53;;;;;;;2.30;0.60;;;21.80;99.90;;;;;;5036127;28;20186;-80
2021/05/10 11:34:36;;;;;;;2.87;0.60;;;21.80;99.90;;;;;;5037488;28;20527;-80
2021/05/10 11:37:02;;;;;;;2.17;0.60;;;22.10;99.90;;;;;;5018583;28;20171;-80
2021/05/10 11:39:29;;;;;;;1.17;0.50;;;22.40;99.90;;;;;;5018908;28;20229;-80
2021/05/10 11:41:57;;;;;;;0.73;0.60;;;22.30;99.90;;;;;;5021809;28;20204;-80
2021/05/10 11:44:29;;;;;;;2.83;0.70;;;22.50;99.90;;;;;;5055749;28;20174;-80
2021/05/10 11:46:58;;;;;;;1.40;0.70;;;22.70;99.90;;;;;;5054185;28;20162;-79
2021/05/10 11:49:32;;;;;;;1.73;0.60;;;22.90;99.90;;;;;;5018238;28;20196;-78
2021/05/10 11:52:08;;;;;;;2.30;0.47;;;23.00;99.90;;;;;;5052288;28;20232;-78
2021/05/10 11:54:34;;;;;;;2.50;0.40;;;22.70;99.90;;;;;;5018037;28;20185;-77
2021/05/10 11:57:02;;;;;;;1.37;0.50;;;22.40;99.90;;;;;;5017223;28;20170;-78
2021/05/10 11:59:35;;;;;;;0.73;0.40;;;22.40;99.90;;;;;;5035548;28;20166;-80
2021/05/10 12:02:01;;;;;;;1.27;0.30;;;22.50;99.90;;;;;;5051288;28;20166;-76
2021/05/10 12:04:28;;;;;;;1.87;0.47;;;22.50;99.90;;;;;;5017927;28;20174;-76
2021/05/10 12:06:54;;;;;;;1.53;0.60;;;22.60;99.90;;;;;;5051924;28;20319;-75
2021/05/10 12:09:39;;;;;;;1.23;0.70;;;22.40;99.90;;;;;;5034258;28;20170;-75
2021/05/10 12:12:20;;;;;;;0.97;0.50;;;22.00;99.90;;;;;;5052166;28;20382;-80
2021/05/10 12:14:48;;;;;;;2.00;0.67;;;21.90;99.90;;;;;;5036042;28;20290;-80
2021/05/10 12:17:18;;;;;;;1.30;0.60;;;22.00;99.90;;;;;;5036005;28;20167;-80
2021/05/10 12:19:50;;;;;;;0.77;0.50;;;21.90;99.90;;;;;;5035601;28;20162;-80
2021/05/10 12:22:20;;;;;;;1.30;0.73;;;21.90;99.90;;;;;;5035313;28;20688;-79
2021/05/10 12:25:04;;;;;;;2.83;0.83;;;21.90;99.90;;;;;;5020287;28;20194;-81
2021/05/10 12:27:48;;;;;;;2.00;0.80;;;21.90;99.90;;;;;;5036605;28;20163;-80
2021/05/10 12:30:50;;;;;;;1.67;0.60;;;22.00;99.90;;;;;;5051861;28;20571;-80
2021/05/10 12:33:28;;;;;;;1.13;0.60;;;22.00;99.90;;;;;;5052668;28;20573;-80
2021/05/10 12:35:53;;;;;;;3.63;0.90;;;21.90;99.90;;;;;;5035048;28;20194;-78
2021/05/10 12:38:32;;;;;;;0.80;0.70;;;22.00;99.90;;;;;;5051516;28;20181;-80
2021/05/10 12:40:59;;;;;;;2.63;0.80;;;22.10;99.90;;;;;;5028312;28;20182;-80
2021/05/10 12:43:25;;;;;;;1.13;0.90;;;22.00;99.90;;;;;;5016579;28;20178;-81
2021/05/10 12:45:57;;;;;;;2.00;0.73;;;22.10;99.90;;;;;;4998523;28;20226;-80
2021/05/10 12:48:45;;;;;;;1.97;0.90;;;22.20;99.90;;;;;;5049866;28;20170;-81
2021/05/10 12:51:11;;;;;;;1.27;0.90;;;22.40;99.90;;;;;;5036122;28;20567;-79
2021/05/10 12:53:43;;;;;;;4.67;1.10;;;22.40;99.90;;;;;;5050943;28;20637;-78
2021/05/10 12:56:13;;;;;;;1.87;1.00;;;22.50;99.90;;;;;;5050483;28;20197;-79
2021/05/10 12:58:43;;;;;;;1.77;1.00;;;22.70;99.90;;;;;;5009821;28;20627;-79